Time;durP1;ratioP1;P1;durP2;ratioP2;P2;SDS_P1;SDS_P2;PMS_P1;PMS_P2;Temp;Humidity;BMP_temperature;BMP_pressure;BME280_temperature;BME280_humidity;BME280_pressure;Samples;Min_cycle;Max_cycle;Signal;HPM_P1;HPM_P2
2023/09/14 00:00:49;;;;;;;4.63;2.40;;;;;;;13.26;100.00;93472.38;2583079;22;20008;-86
2023/09/14 00:01:54;;;;;;;2.38;2.17;;;;;;;13.29;100.00;93462.72;2586004;22;20330;-84
2023/09/14 00:02:56;;;;;;;2.38;2.10;;;;;;;13.31;100.00;93471.84;2583732;22;20054;-86
2023/09/14 00:03:57;;;;;;;2.88;2.10;;;;;;;13.15;100.00;93468.44;2583126;22;20042;-88
2023/09/14 00:04:59;;;;;;;2.63;2.35;;;;;;;13.17;100.00;93468.75;2582925;22;20007;-85
2023/09/14 00:06:01;;;;;;;4.72;2.15;;;;;;;13.20;100.00;93465.22;2583109;22;20012;-84
2023/09/14 00:07:09;;;;;;;2.20;2.00;;;;;;;13.22;100.00;93469.03;2583676;22;20008;-86
2023/09/14 00:08:15;;;;;;;4.28;2.33;;;;;;;13.17;100.00;93468.75;2572877;22;20004;-84
2023/09/14 00:09:17;;;;;;;4.75;2.60;;;;;;;13.23;100.00;93469.78;2572283;22;20067;-84
2023/09/14 00:10:23;;;;;;;2.10;1.90;;;;;;;13.23;100.00;93459.78;2583245;22;20096;-86
2023/09/14 00:11:24;;;;;;;2.40;2.20;;;;;;;13.25;100.00;93459.34;2572072;22;20004;-85
2023/09/14 00:12:26;;;;;;;2.40;1.90;;;;;;;13.17;100.00;93458.00;2570665;22;20031;-85
2023/09/14 00:13:28;;;;;;;2.60;2.40;;;;;;;13.17;100.00;93466.06;2582939;22;20011;-84
2023/09/14 00:14:29;;;;;;;4.47;2.05;;;;;;;13.18;100.00;93460.28;2595048;22;20011;-87
2023/09/14 00:15:31;;;;;;;2.63;2.42;;;;;;;13.10;100.00;93451.66;2582809;22;20354;-85
2023/09/14 00:16:33;;;;;;;2.60;2.40;;;;;;;13.12;100.00;93464.66;2570376;22;20122;-87
2023/09/14 00:17:35;;;;;;;3.65;2.20;;;;;;;12.96;100.00;93465.44;2570433;22;20027;-84
2023/09/14 00:18:36;;;;;;;4.45;2.40;;;;;;;13.00;100.00;93460.75;2583170;22;20004;-87
2023/09/14 00:19:41;;;;;;;5.45;2.50;;;;;;;12.95;100.00;93463.94;2596030;22;20070;-85
2023/09/14 00:20:46;;;;;;;4.45;2.40;;;;;;;12.92;100.00;93472.81;2583324;22;20022;-86
2023/09/14 00:21:48;;;;;;;2.85;2.55;;;;;;;12.92;100.00;93467.47;2572043;22;20008;-85
2023/09/14 00:22:52;;;;;;;1.90;1.80;;;;;;;12.82;100.00;93469.25;2583076;22;20004;-84
2023/09/14 00:23:53;;;;;;;2.13;1.98;;;;;;;12.90;100.00;93463.69;2583096;22;20023;-88
2023/09/14 00:24:57;;;;;;;2.40;2.20;;;;;;;12.92;100.00;93461.34;2582785;22;20645;-85
2023/09/14 00:26:00;;;;;;;3.58;2.33;;;;;;;12.92;100.00;93469.41;2596304;22;20008;-84
2023/09/14 00:27:04;;;;;;;3.17;2.47;;;;;;;12.90;100.00;93461.75;2595311;22;20000;-88
2023/09/14 00:28:06;;;;;;;2.72;2.50;;;;;;;12.88;100.00;93463.34;2584021;22;20071;-85
2023/09/14 00:29:08;;;;;;;2.53;2.33;;;;;;;12.81;100.00;93464.28;2583144;22;20065;-86
2023/09/14 00:30:12;;;;;;;2.30;2.10;;;;;;;12.71;100.00;93470.66;2570921;22;20447;-87
2023/09/14 00:31:13;;;;;;;2.05;1.85;;;;;;;12.75;100.00;93465.97;2571349;22;20001;-87
2023/09/14 00:32:14;;;;;;;2.42;2.22;;;;;;;12.78;100.00;93454.41;2570437;22;20083;-87
2023/09/14 00:33:17;;;;;;;3.65;2.38;;;;;;;12.68;100.00;93461.53;2582947;22;20007;-85
2023/09/14 00:34:18;;;;;;;3.63;2.15;;;;;;;12.75;100.00;93464.03;2582947;22;20000;-87
2023/09/14 00:35:20;;;;;;;2.30;2.10;;;;;;;12.73;100.00;93465.63;2570078;22;20387;-83
2023/09/14 00:36:22;;;;;;;3.05;2.53;;;;;;;12.70;100.00;93466.47;2570204;22;20359;-86
2023/09/14 00:37:27;;;;;;;3.40;2.25;;;;;;;12.59;100.00;93464.78;2570813;22;20046;-87
2023/09/14 00:38:28;;;;;;;2.50;2.30;;;;;;;12.72;100.00;93464.13;2583478;22;20003;-83
2023/09/14 00:39:30;;;;;;;2.13;1.92;;;;;;;12.72;100.00;93462.19;2570589;23;20420;-87
2023/09/14 00:40:32;;;;;;;2.45;2.25;;;;;;;12.75;100.00;93463.28;2582894;22;20156;-84
2023/09/14 00:41:34;;;;;;;4.40;2.25;;;;;;;12.79;100.00;93463.97;2583406;22;20008;-84
2023/09/14 00:42:47;;;;;;;2.90;2.50;;;;;;;12.76;100.00;93459.44;2595353;22;20332;-84
2023/09/14 00:43:49;;;;;;;3.90;2.30;;;;;;;12.75;100.00;93460.59;2585084;22;20004;-83
2023/09/14 00:44:51;;;;;;;2.60;2.40;;;;;;;12.75;100.00;93460.59;2582582;22;20059;-84
2023/09/14 00:45:53;;;;;;;4.55;2.58;;;;;;;12.70;100.00;93456.50;2570469;22;20068;-86
2023/09/14 00:46:56;;;;;;;3.00;2.30;;;;;;;12.68;100.00;93472.25;2583219;22;20012;-85
2023/09/14 00:47:59;;;;;;;2.60;2.40;;;;;;;12.69;100.00;93468.41;2583184;22;20408;-86
2023/09/14 00:49:01;;;;;;;3.78;2.58;;;;;;;12.64;100.00;93465.47;2571146;22;20077;-85
2023/09/14 00:50:05;;;;;;;2.60;2.40;;;;;;;12.59;100.00;93464.03;2570735;22;20080;-86
2023/09/14 00:51:08;;;;;;;2.80;2.30;;;;;;;12.56;100.00;93457.59;2583053;22;20362;-86
2023/09/14 00:52:10;;;;;;;4.20;2.60;;;;;;;12.56;100.00;93457.59;2571107;22;20016;-83
2023/09/14 00:53:21;;;;;;;2.65;2.45;;;;;;;12.51;100.00;93460.78;2571044;22;20151;-85
2023/09/14 00:54:22;;;;;;;;;;;;;;;12.56;100.00;93465.66;2574355;22;20110;-86
2023/09/14 00:55:30;;;;;;;2.78;2.28;;;;;;;12.50;100.00;93461.94;2570216;22;19914;-85
2023/09/14 00:56:32;;;;;;;2.45;2.25;;;;;;;12.32;100.00;93465.03;2596811;22;20011;-86
2023/09/14 00:57:39;;;;;;;3.78;2.50;;;;;;;12.39;100.00;93461.44;2582809;23;20063;-86
2023/09/14 00:58:41;;;;;;;3.00;2.65;;;;;;;12.30;100.00;93461.28;2584373;22;20000;-85
2023/09/14 00:59:44;;;;;;;3.60;2.50;;;;;;;12.40;100.00;93465.63;2608158;22;20007;-85
2023/09/14 01:00:47;;;;;;;2.30;2.10;;;;;;;12.40;100.00;93460.28;2608316;22;20002;-84
2023/09/14 01:01:49;;;;;;;2.38;2.13;;;;;;;12.22;100.00;93459.94;2583110;22;20004;-86
2023/09/14 01:02:56;;;;;;;3.00;2.40;;;;;;;12.26;100.00;93457.94;2571238;22;20027;-86
2023/09/14 01:03:57;;;;;;;3.78;2.50;;;;;;;12.23;100.00;93467.53;2572780;22;20047;-86
2023/09/14 01:05:03;;;;;;;2.60;2.40;;;;;;;12.21;100.00;93461.84;2570696;22;20009;-85
2023/09/14 01:06:08;;;;;;;2.47;2.28;;;;;;;12.22;100.00;93457.25;2573023;22;20324;-85
2023/09/14 01:07:14;;;;;;;2.55;2.35;;;;;;;12.22;100.00;93463.34;2571341;22;20039;-84
2023/09/14 01:08:16;;;;;;;2.28;2.00;;;;;;;12.19;100.00;93464.19;2571659;22;20095;-86
2023/09/14 01:09:18;;;;;;;4.78;2.33;;;;;;;12.25;100.00;93457.19;2583101;22;20067;-87
2023/09/14 01:10:20;;;;;;;2.60;2.40;;;;;;;12.19;100.00;93456.16;2570635;22;20000;-84
2023/09/14 01:11:24;;;;;;;3.13;2.20;;;;;;;12.21;100.00;93459.19;2583177;22;20004;-85
2023/09/14 01:12:26;;;;;;;3.10;2.20;;;;;;;12.08;100.00;93464.44;2583506;22;20000;-87
2023/09/14 01:13:56;;;;;;;3.58;2.10;;;;;;;12.09;100.00;93457.91;2570706;22;20059;-87
2023/09/14 01:15:11;;;;;;;6.88;2.60;;;;;;;12.12;100.00;93466.28;2582169;22;20124;-85
2023/09/14 01:16:45;;;;;;;3.15;2.13;;;;;;;12.00;100.00;93460.41;2585120;22;20425;-84
2023/09/14 01:17:53;;;;;;;2.35;2.15;;;;;;;11.96;100.00;93450.94;2564889;22;20008;-87
2023/09/14 01:19:18;;;;;;;2.83;2.28;;;;;;;12.01;100.00;93458.47;2594821;22;20080;-85
2023/09/14 01:20:41;;;;;;;3.22;2.22;;;;;;;12.09;100.00;93460.56;2600045;22;20009;-87
2023/09/14 01:22:03;;;;;;;2.40;2.20;;;;;;;12.10;100.00;93456.72;2600548;22;20070;-88
2023/09/14 01:23:35;;;;;;;4.57;2.28;;;;;;;12.03;100.00;93459.56;2586667;22;20004;-84
2023/09/14 01:24:57;;;;;;;4.28;2.30;;;;;;;11.98;100.00;93456.59;2588874;22;20081;-86
2023/09/14 01:26:00;;;;;;;2.88;2.40;;;;;;;11.98;100.00;93457.38;2578832;22;20003;-86
2023/09/14 01:27:03;;;;;;;3.88;2.30;;;;;;;11.97;100.00;93458.53;2570658;22;20004;-84
2023/09/14 01:28:10;;;;;;;2.75;2.55;;;;;;;11.94;100.00;93456.72;2571103;22;20008;-85
2023/09/14 01:29:12;;;;;;;3.10;2.25;;;;;;;11.94;100.00;93462.06;2583717;22;20003;-84
2023/09/14 01:30:17;;;;;;;2.50;2.30;;;;;;;11.88;100.00;93463.72;2595492;22;20082;-87
2023/09/14 01:31:19;;;;;;;2.60;2.33;;;;;;;11.90;100.00;93461.38;2583398;22;20039;-86
2023/09/14 01:32:20;;;;;;;3.72;2.38;;;;;;;11.95;100.00;93455.53;2595356;22;20347;-85
2023/09/14 01:33:24;;;;;;;3.92;2.40;;;;;;;11.97;100.00;93460.47;2582491;22;20007;-83
2023/09/14 01:34:27;;;;;;;3.90;2.45;;;;;;;11.89;100.00;93461.78;2583140;22;20003;-84
2023/09/14 01:35:33;;;;;;;2.83;2.20;;;;;;;11.91;100.00;93462.88;2582832;22;20000;-84
2023/09/14 01:36:44;;;;;;;2.22;1.98;;;;;;;11.71;100.00;93470.91;2594884;22;20000;-86
2023/09/14 01:37:46;;;;;;;2.20;2.00;;;;;;;11.72;100.00;93463.63;2574397;22;20012;-86
2023/09/14 01:38:49;;;;;;;2.42;2.20;;;;;;;11.74;100.00;93463.97;2570627;22;20004;-84
2023/09/14 01:39:53;;;;;;;4.45;2.08;;;;;;;11.75;100.00;93462.81;2571294;22;20004;-84
2023/09/14 01:40:55;;;;;;;4.47;2.50;;;;;;;11.66;100.00;93465.28;2582999;22;20415;-82
2023/09/14 01:42:01;;;;;;;4.22;2.20;;;;;;;11.64;100.00;93459.59;2583057;22;20570;-88
2023/09/14 01:43:07;;;;;;;4.38;2.90;;;;;;;11.72;100.00;93464.41;2596705;22;20026;-84
2023/09/14 01:44:09;;;;;;;2.50;2.30;;;;;;;11.76;100.00;93457.03;2595060;22;20682;-85
2023/09/14 01:45:11;;;;;;;2.58;2.38;;;;;;;11.68;100.00;93462.97;2570317;22;20004;-85
2023/09/14 01:46:18;;;;;;;3.70;2.47;;;;;;;11.74;100.00;93459.38;2570733;22;20008;-85
2023/09/14 01:47:23;;;;;;;3.38;2.42;;;;;;;11.72;100.00;93464.41;2572008;22;20010;-83
2023/09/14 01:48:24;;;;;;;3.63;2.33;;;;;;;11.70;100.00;93460.63;2583123;22;20058;-82
2023/09/14 01:49:25;;;;;;;2.90;2.67;;;;;;;11.59;100.00;93458.94;2569936;22;20016;-86
2023/09/14 01:50:27;;;;;;;3.22;2.20;;;;;;;11.64;100.00;93463.03;2570072;23;20091;-83
2023/09/14 01:51:29;;;;;;;3.13;2.10;;;;;;;11.65;100.00;93455.75;2570101;22;20020;-83
2023/09/14 01:52:31;;;;;;;2.58;2.20;;;;;;;11.58;100.00;93460.06;2570763;22;20014;-84
2023/09/14 01:53:34;;;;;;;2.35;2.15;;;;;;;11.59;100.00;93461.59;2570193;22;20004;-82
2023/09/14 01:54:35;;;;;;;2.90;2.22;;;;;;;11.50;100.00;93466.75;2570573;22;20011;-85
2023/09/14 01:55:38;;;;;;;2.70;2.50;;;;;;;11.52;100.00;93469.00;2570055;22;20000;-84
2023/09/14 01:56:41;;;;;;;2.65;2.10;;;;;;;11.53;100.00;93457.88;2582907;22;20455;-84
2023/09/14 01:57:43;;;;;;;3.10;2.47;;;;;;;11.48;100.00;93466.41;2582720;22;20055;-86
2023/09/14 01:58:45;;;;;;;2.72;2.13;;;;;;;11.45;100.00;93471.81;2582886;22;20058;-83
2023/09/14 01:59:46;;;;;;;3.33;2.33;;;;;;;11.43;100.00;93466.13;2582509;22;20004;-86
2023/09/14 02:00:48;;;;;;;2.53;2.33;;;;;;;11.48;100.00;93473.69;2569994;22;20011;-82
2023/09/14 02:01:49;;;;;;;3.30;2.50;;;;;;;11.47;100.00;93467.56;2594946;22;20014;-85
2023/09/14 02:02:52;;;;;;;2.47;2.28;;;;;;;11.47;100.00;93466.81;2595007;22;20054;-84
2023/09/14 02:03:57;;;;;;;2.47;2.25;;;;;;;11.46;100.00;93471.44;2571871;22;20088;-84
2023/09/14 02:04:58;;;;;;;2.42;2.05;;;;;;;11.53;100.00;93460.56;2570754;22;20444;-85
2023/09/14 02:06:04;;;;;;;3.22;2.70;;;;;;;11.50;100.00;93461.41;2581780;22;20090;-84
2023/09/14 02:07:09;;;;;;;6.65;2.80;;;;;;;11.50;100.00;93463.31;2595737;22;20011;-84
2023/09/14 02:08:14;;;;;;;3.53;2.53;;;;;;;11.49;100.00;93465.22;2583128;22;20008;-86
2023/09/14 02:09:17;;;;;;;6.22;2.38;;;;;;;11.52;100.00;93474.38;2583242;22;20038;-85
2023/09/14 02:10:21;;;;;;;3.45;2.47;;;;;;;11.38;100.00;93477.31;2570376;22;20004;-87
2023/09/14 02:11:23;;;;;;;3.50;2.50;;;;;;;11.31;100.00;93470.16;2570553;22;20237;-88
2023/09/14 02:12:28;;;;;;;4.20;1.90;;;;;;;11.41;100.00;93466.53;2570315;22;20103;-85
2023/09/14 02:13:30;;;;;;;2.65;2.38;;;;;;;11.44;100.00;93468.38;2571231;22;20437;-86
2023/09/14 02:14:32;;;;;;;2.95;2.40;;;;;;;11.48;100.00;93471.00;2570757;22;20008;-82
2023/09/14 02:15:33;;;;;;;2.47;2.25;;;;;;;11.51;100.00;93483.56;2582154;22;20023;-85
2023/09/14 02:16:59;;;;;;;2.55;2.10;;;;;;;11.48;100.00;93485.13;2582349;22;20091;-85
2023/09/14 02:18:02;;;;;;;2.72;2.50;;;;;;;11.49;100.00;93483.22;2587604;22;20010;-83
2023/09/14 02:19:03;;;;;;;4.47;2.70;;;;;;;11.51;100.00;93483.56;2582541;22;20000;-85
2023/09/14 02:20:07;;;;;;;3.15;2.90;;;;;;;11.67;100.00;93482.88;2582527;22;20354;-83
2023/09/14 02:21:10;;;;;;;3.47;2.67;;;;;;;11.74;100.00;93482.72;2582637;22;20011;-85
2023/09/14 02:22:12;;;;;;;3.67;3.10;;;;;;;11.83;100.00;93481.03;2570631;22;20548;-83
2023/09/14 02:23:17;;;;;;;3.92;2.92;;;;;;;11.92;100.00;93482.41;2582401;22;20004;-84
2023/09/14 02:24:18;;;;;;;3.60;2.80;;;;;;;11.80;100.00;93483.75;2583363;22;20008;-83
2023/09/14 02:25:20;;;;;;;4.13;2.95;;;;;;;11.88;100.00;93471.75;2570002;22;20056;-83
2023/09/14 02:26:24;;;;;;;3.38;3.08;;;;;;;12.07;100.00;93472.88;2569702;22;20328;-84
2023/09/14 02:27:25;;;;;;;3.70;2.92;;;;;;;12.06;100.00;93474.78;2571382;22;20015;-84
2023/09/14 02:28:27;;;;;;;3.30;2.97;;;;;;;12.00;100.00;93471.13;2582418;22;20090;-82
2023/09/14 02:29:30;;;;;;;3.35;3.05;;;;;;;11.80;100.00;93473.03;2582282;22;20008;-88
2023/09/14 02:30:39;;;;;;;3.47;2.92;;;;;;;11.92;100.00;93477.78;2570451;22;20009;-82
2023/09/14 02:31:41;;;;;;;3.70;3.15;;;;;;;12.02;100.00;93478.72;2572980;22;20353;-84
2023/09/14 02:32:42;;;;;;;3.25;2.95;;;;;;;12.01;100.00;93477.22;2582566;22;20407;-86
2023/09/14 02:33:44;;;;;;;5.57;2.95;;;;;;;12.08;100.00;93485.88;2594750;22;21040;-84
2023/09/14 02:34:46;;;;;;;3.25;2.92;;;;;;;11.93;100.00;93476.63;2570005;22;20111;-84
2023/09/14 02:35:50;;;;;;;5.15;3.30;;;;;;;11.97;100.00;93484.56;2570051;22;20055;-85
2023/09/14 02:36:52;;;;;;;3.33;3.03;;;;;;;11.99;100.00;93483.00;2571370;22;20024;-86
2023/09/14 02:37:57;;;;;;;4.50;2.67;;;;;;;12.20;100.00;93475.66;2594921;22;20010;-86
2023/09/14 02:39:01;;;;;;;3.20;2.90;;;;;;;12.21;100.00;93477.94;2582748;22;20119;-84
2023/09/14 02:40:06;;;;;;;4.40;2.95;;;;;;;12.24;100.00;93479.00;2583501;22;20004;-85
2023/09/14 02:41:08;;;;;;;3.53;3.22;;;;;;;12.36;100.00;93478.38;2595563;22;20334;-87
2023/09/14 02:42:13;;;;;;;3.60;2.80;;;;;;;12.25;100.00;93483.97;2595555;22;20011;-84
2023/09/14 02:43:16;;;;;;;3.22;2.92;;;;;;;12.36;100.00;93481.03;2594722;22;20000;-88
2023/09/14 02:44:18;;;;;;;4.20;2.75;;;;;;;12.34;100.00;93486.09;2570372;22;20043;-83
2023/09/14 02:45:20;;;;;;;4.60;3.10;;;;;;;12.34;100.00;93478.03;2570326;22;20004;-84
2023/09/14 02:46:21;;;;;;;3.83;3.08;;;;;;;12.24;100.00;93481.69;2582357;22;20087;-87
2023/09/14 02:47:22;;;;;;;4.85;2.92;;;;;;;12.28;100.00;93488.47;2595024;22;20079;-85
2023/09/14 02:48:26;;;;;;;3.35;2.50;;;;;;;12.19;100.00;93485.63;2582412;22;20004;-86
2023/09/14 02:49:27;;;;;;;3.33;2.17;;;;;;;12.16;100.00;93489.16;2582911;22;20336;-84
2023/09/14 02:50:28;;;;;;;2.85;2.50;;;;;;;12.24;100.00;93487.81;2582287;22;20004;-84
2023/09/14 02:51:33;;;;;;;3.70;2.72;;;;;;;12.34;100.00;93483.41;2594756;22;20397;-85
2023/09/14 02:52:35;;;;;;;3.70;3.15;;;;;;;12.35;100.00;93487.59;2595762;22;20000;-83
2023/09/14 02:53:38;;;;;;;3.25;2.78;;;;;;;12.34;100.00;93480.72;2582356;22;20030;-86
2023/09/14 02:54:40;;;;;;;4.30;2.72;;;;;;;12.37;100.00;93490.59;2570727;22;20000;-82
2023/09/14 02:55:42;;;;;;;3.58;2.65;;;;;;;12.33;100.00;93487.97;2570499;22;20019;-84
2023/09/14 02:56:47;;;;;;;2.83;2.55;;;;;;;12.42;100.00;93482.03;2569668;22;20005;-84
2023/09/14 02:57:48;;;;;;;3.70;2.72;;;;;;;12.52;100.00;93483.75;2583005;22;20008;-86
2023/09/14 02:58:51;;;;;;;4.47;2.88;;;;;;;12.42;100.00;93489.34;2581652;22;20062;-84
2023/09/14 02:59:57;;;;;;;3.25;2.95;;;;;;;12.41;100.00;93479.78;2582798;22;20038;-88
2023/09/14 03:01:05;;;;;;;4.10;3.00;;;;;;;12.56;100.00;93487.09;2571543;22;20332;-85
2023/09/14 03:02:07;;;;;;;6.63;3.33;;;;;;;12.75;100.00;93488.19;2572993;22;20012;-86
2023/09/14 03:03:09;;;;;;;3.60;3.22;;;;;;;12.77;100.00;93485.81;2570098;22;20365;-86
2023/09/14 03:04:15;;;;;;;4.70;3.60;;;;;;;12.72;100.00;93488.25;2583121;22;20007;-83
2023/09/14 03:05:17;;;;;;;5.93;3.55;;;;;;;12.71;100.00;93487.50;2583369;22;20012;-82
2023/09/14 03:06:19;;;;;;;6.00;3.50;;;;;;;12.77;100.00;93493.13;2582374;22;20008;-88
2023/09/14 03:07:21;;;;;;;5.13;3.25;;;;;;;12.69;100.00;93487.19;2569976;22;20067;-84
2023/09/14 03:08:25;;;;;;;5.65;3.58;;;;;;;12.65;100.00;93486.50;2582399;22;20412;-84
2023/09/14 03:09:28;;;;;;;4.10;3.28;;;;;;;12.62;100.00;93489.28;2583164;22;20008;-85
2023/09/14 03:10:29;;;;;;;4.32;3.17;;;;;;;12.71;100.00;93486.75;2570325;22;20027;-85
2023/09/14 03:11:38;;;;;;;6.35;3.47;;;;;;;12.78;100.00;93486.59;2582038;22;20047;-83
2023/09/14 03:12:41;;;;;;;4.53;3.47;;;;;;;12.83;100.00;93478.03;2583873;22;20107;-85
2023/09/14 03:13:43;;;;;;;4.10;3.70;;;;;;;12.74;100.00;93483.25;2570784;22;20419;-85
2023/09/14 03:14:48;;;;;;;6.10;3.40;;;;;;;12.73;100.00;93482.50;2568778;22;20770;-87
2023/09/14 03:15:58;;;;;;;5.07;3.70;;;;;;;12.62;100.00;93487.34;2583067;22;20493;-84
2023/09/14 03:16:59;;;;;;;4.17;3.43;;;;;;;12.65;100.00;93491.88;2572978;22;20055;-84
2023/09/14 03:18:04;;;;;;;5.20;3.10;;;;;;;12.74;100.00;93496.66;2571004;22;20400;-85
2023/09/14 03:19:10;;;;;;;3.45;3.13;;;;;;;12.77;100.00;93496.56;2584835;22;20004;-84
2023/09/14 03:20:12;;;;;;;6.22;4.05;;;;;;;12.76;100.00;93499.66;2595131;22;20035;-86
2023/09/14 03:21:26;;;;;;;4.13;3.53;;;;;;;12.84;100.00;93496.38;2570821;22;20458;-84
2023/09/14 03:22:37;;;;;;;5.15;3.97;;;;;;;12.81;100.00;93494.53;2579399;22;20332;-84
2023/09/14 03:23:39;;;;;;;4.28;3.53;;;;;;;12.71;100.00;93492.88;2572633;22;20440;-85
2023/09/14 03:24:41;;;;;;;3.97;3.00;;;;;;;12.75;100.00;93495.47;2583432;22;20030;-86
2023/09/14 03:25:44;;;;;;;3.60;3.30;;;;;;;12.78;100.00;93495.41;2583396;22;20007;-85
2023/09/14 03:26:47;;;;;;;3.50;3.20;;;;;;;12.73;100.00;93497.81;2584029;22;20075;-87
2023/09/14 03:27:49;;;;;;;5.50;3.47;;;;;;;12.64;100.00;93493.03;2594452;22;20327;-86
2023/09/14 03:29:22;;;;;;;4.75;3.30;;;;;;;12.70;100.00;93494.06;2583495;22;20010;-86
2023/09/14 03:30:26;;;;;;;4.38;3.25;;;;;;;12.75;100.00;93490.09;2589312;22;20000;-87
2023/09/14 03:31:30;;;;;;;3.35;3.05;;;;;;;12.64;100.00;93493.03;2571834;22;20001;-87
2023/09/14 03:32:32;;;;;;;3.40;3.10;;;;;;;12.57;100.00;93485.91;2571518;22;20095;-88
2023/09/14 03:33:33;;;;;;;4.03;3.42;;;;;;;12.47;100.00;93492.28;2595483;22;20003;-83
2023/09/14 03:34:35;;;;;;;4.10;3.47;;;;;;;12.50;100.00;93483.41;2583175;22;20090;-87
2023/09/14 03:35:37;;;;;;;4.05;3.65;;;;;;;12.41;100.00;93487.84;2570567;22;20290;-86
2023/09/14 03:36:40;;;;;;;4.72;3.45;;;;;;;12.50;100.00;93480.72;2570846;22;20008;-83
2023/09/14 03:37:43;;;;;;;4.53;3.65;;;;;;;12.52;100.00;93481.06;2596525;22;20233;-84
2023/09/14 03:38:49;;;;;;;5.00;3.45;;;;;;;12.50;100.00;93483.41;2582826;22;20766;-85
2023/09/14 03:39:54;;;;;;;4.72;3.33;;;;;;;12.40;100.00;93476.34;2584171;22;20004;-86
2023/09/14 03:40:55;;;;;;;3.65;3.28;;;;;;;12.39;100.00;93487.50;2583150;22;20058;-85
2023/09/14 03:41:58;;;;;;;4.43;3.30;;;;;;;12.18;100.00;93480.69;2583063;22;20015;-85
2023/09/14 03:43:00;;;;;;;4.15;3.00;;;;;;;12.26;100.00;93480.13;2596039;22;20022;-83
2023/09/14 03:44:01;;;;;;;4.97;3.28;;;;;;;12.21;100.00;93485.22;2583024;22;20038;-85
2023/09/14 03:45:04;;;;;;;5.28;3.30;;;;;;;12.20;100.00;93481.78;2570561;22;20136;-82
2023/09/14 03:46:06;;;;;;;4.22;3.20;;;;;;;12.23;100.00;93483.63;2583322;22;20003;-87
2023/09/14 03:47:08;;;;;;;5.00;3.70;;;;;;;12.17;100.00;93489.91;2571030;22;20344;-86
2023/09/14 03:48:13;;;;;;;3.45;3.15;;;;;;;12.12;100.00;93487.72;2571109;22;20412;-85
2023/09/14 03:49:19;;;;;;;5.40;3.45;;;;;;;12.18;100.00;93478.00;2572402;22;20474;-84
2023/09/14 03:50:20;;;;;;;3.20;2.90;;;;;;;12.19;100.00;93484.88;2572402;22;20413;-83
2023/09/14 03:51:22;;;;;;;4.70;3.53;;;;;;;12.10;100.00;93483.50;2583190;22;20004;-84
2023/09/14 03:52:24;;;;;;;3.88;3.47;;;;;;;11.98;100.00;93484.16;2595464;22;20011;-86
2023/09/14 03:53:28;;;;;;;3.67;3.17;;;;;;;11.94;100.00;93483.50;2583153;22;20012;-84
2023/09/14 03:54:29;;;;;;;3.75;3.40;;;;;;;11.84;100.00;93489.81;2583755;22;20000;-85
2023/09/14 03:55:32;;;;;;;4.03;3.22;;;;;;;11.77;100.00;93492.63;2583293;22;20003;-84
2023/09/14 03:56:34;;;;;;;5.38;3.60;;;;;;;11.82;100.00;93489.47;2595390;22;20003;-84
2023/09/14 03:57:37;;;;;;;3.95;3.22;;;;;;;11.72;100.00;93488.50;2582548;22;20011;-84
2023/09/14 03:58:42;;;;;;;3.83;3.50;;;;;;;11.71;100.00;93494.25;2571130;22;20068;-85
2023/09/14 03:59:46;;;;;;;5.28;3.53;;;;;;;11.74;100.00;93482.72;2572307;22;19996;-85
2023/09/14 04:00:49;;;;;;;4.78;3.10;;;;;;;11.68;100.00;93485.16;2583557;22;20027;-85
2023/09/14 04:01:52;;;;;;;4.40;3.17;;;;;;;11.67;100.00;93494.31;2595628;22;20090;-84
2023/09/14 04:02:54;;;;;;;3.95;3.50;;;;;;;11.71;100.00;93494.25;2595935;22;20091;-85
2023/09/14 04:03:55;;;;;;;4.10;3.42;;;;;;;11.74;100.00;93488.09;2607908;22;20009;-85
2023/09/14 04:04:57;;;;;;;3.78;3.47;;;;;;;11.77;100.00;93488.03;2583041;22;20441;-85
2023/09/14 04:05:59;;;;;;;4.05;3.22;;;;;;;11.68;100.00;93498.53;2570908;22;20365;-85
2023/09/14 04:07:02;;;;;;;5.30;3.15;;;;;;;11.63;100.00;93488.28;2570793;22;20430;-87
2023/09/14 04:08:04;;;;;;;3.97;2.85;;;;;;;11.71;100.00;93489.66;2571721;22;20084;-87
2023/09/14 04:09:06;;;;;;;4.78;3.50;;;;;;;11.72;100.00;93495.75;2583202;22;20049;-83
2023/09/14 04:10:10;;;;;;;4.75;3.47;;;;;;;11.70;100.00;93485.47;2583605;22;20042;-85
2023/09/14 04:11:18;;;;;;;3.38;3.08;;;;;;;11.67;100.00;93491.66;2597171;22;20008;-86
2023/09/14 04:12:20;;;;;;;4.80;3.33;;;;;;;11.55;100.00;93489.63;2584763;22;20035;-85
2023/09/14 04:13:30;;;;;;;4.25;3.50;;;;;;;11.59;100.00;93498.34;2583438;22;20004;-83
2023/09/14 04:14:32;;;;;;;4.15;3.40;;;;;;;11.55;100.00;93492.28;2574519;22;20005;-87
2023/09/14 04:15:33;;;;;;;6.13;3.58;;;;;;;11.53;100.00;93495.38;2582919;22;20020;-84
2023/09/14 04:16:35;;;;;;;4.25;3.40;;;;;;;11.58;100.00;93496.81;2570912;22;20004;-85
2023/09/14 04:17:40;;;;;;;3.97;3.15;;;;;;;11.58;100.00;93492.19;2570817;22;20024;-85
2023/09/14 04:18:47;;;;;;;4.45;3.42;;;;;;;11.64;100.00;93492.50;2584569;22;20015;-84
2023/09/14 04:19:49;;;;;;;4.40;3.63;;;;;;;11.62;100.00;93491.38;2595215;22;20004;-86
2023/09/14 04:20:51;;;;;;;4.95;3.80;;;;;;;11.63;100.00;93493.63;2582390;22;20068;-84
2023/09/14 04:21:53;;;;;;;4.25;3.85;;;;;;;11.57;100.00;93490.69;2570843;22;20063;-86
2023/09/14 04:22:57;;;;;;;3.60;3.10;;;;;;;11.38;100.00;93494.13;2570927;22;20631;-85
2023/09/14 04:24:03;;;;;;;3.60;3.30;;;;;;;11.49;100.00;93499.28;2572572;22;20325;-86
2023/09/14 04:25:07;;;;;;;5.28;3.05;;;;;;;11.57;100.00;93497.97;2583660;22;20505;-86
2023/09/14 04:26:10;;;;;;;5.60;3.25;;;;;;;11.66;100.00;93497.44;2582911;22;20521;-86
2023/09/14 04:27:12;;;;;;;4.75;3.80;;;;;;;11.54;100.00;93502.22;2583344;22;20004;-87
2023/09/14 04:28:22;;;;;;;8.05;3.83;;;;;;;11.53;100.00;93491.94;2583132;22;20301;-85
2023/09/14 04:29:30;;;;;;;6.18;3.92;;;;;;;11.66;100.00;93500.09;2575025;22;20001;-84
2023/09/14 04:30:31;;;;;;;5.13;3.50;;;;;;;11.60;100.00;93495.22;2584299;22;20004;-83
2023/09/14 04:31:38;;;;;;;3.95;3.55;;;;;;;11.65;100.00;93496.69;2595964;22;20060;-83
2023/09/14 04:32:40;;;;;;;7.13;4.15;;;;;;;11.70;100.00;93504.22;2584079;22;20004;-83
2023/09/14 04:33:42;;;;;;;4.13;3.47;;;;;;;11.73;100.00;93498.06;2583630;22;20000;-84
2023/09/14 04:34:48;;;;;;;4.97;3.30;;;;;;;11.75;100.00;93500.31;2584127;22;20000;-86
2023/09/14 04:35:56;;;;;;;4.70;3.53;;;;;;;11.87;100.00;93502.38;2584101;22;20007;-86
2023/09/14 04:37:03;;;;;;;4.07;3.65;;;;;;;12.05;100.00;93492.06;2584512;22;20011;-86
2023/09/14 04:38:06;;;;;;;7.80;3.90;;;;;;;11.96;100.00;93488.44;2572845;22;20008;-85
2023/09/14 04:39:12;;;;;;;6.18;3.38;;;;;;;12.12;100.00;93493.09;2571235;22;20016;-88
2023/09/14 04:40:17;;;;;;;4.32;3.47;;;;;;;11.98;100.00;93496.78;2597164;22;20076;-86
2023/09/14 04:41:19;;;;;;;7.65;3.85;;;;;;;11.92;100.00;93498.47;2583011;22;20015;-86
2023/09/14 04:42:23;;;;;;;5.22;4.13;;;;;;;12.08;100.00;93493.16;2583128;22;20011;-86
2023/09/14 04:43:24;;;;;;;4.68;3.95;;;;;;;12.25;100.00;93499.31;2583835;22;20058;-85
2023/09/14 04:44:26;;;;;;;4.20;3.50;;;;;;;12.22;100.00;93503.56;2582967;22;20142;-88
2023/09/14 04:45:28;;;;;;;5.32;3.65;;;;;;;12.23;100.00;93498.94;2595676;22;20003;-84
2023/09/14 04:46:30;;;;;;;4.57;3.72;;;;;;;12.14;100.00;93498.78;2582762;22;20008;-87
2023/09/14 04:47:32;;;;;;;4.43;3.78;;;;;;;12.10;100.00;93493.47;2583844;22;20004;-85
2023/09/14 04:48:38;;;;;;;5.18;3.83;;;;;;;12.11;100.00;93500.34;2595522;22;20355;-87
2023/09/14 04:49:39;;;;;;;5.38;3.47;;;;;;;12.17;100.00;93506.75;2584099;22;20014;-85
2023/09/14 04:50:42;;;;;;;5.82;4.03;;;;;;;12.14;100.00;93498.78;2582557;22;20011;-86
2023/09/14 04:51:47;;;;;;;5.80;3.63;;;;;;;12.13;100.00;93503.38;2584000;22;20092;-84
2023/09/14 04:52:52;;;;;;;5.15;4.28;;;;;;;12.17;100.00;93504.06;2584298;22;20054;-85
2023/09/14 04:53:54;;;;;;;6.75;4.18;;;;;;;12.16;100.00;93512.50;2571652;22;20404;-84
2023/09/14 04:54:56;;;;;;;7.72;5.00;;;;;;;12.18;100.00;93502.13;2571021;22;20007;-84
2023/09/14 04:55:57;;;;;;;9.15;5.30;;;;;;;12.22;100.00;93506.25;2582971;22;20000;-82
2023/09/14 04:57:01;;;;;;;7.13;4.40;;;;;;;12.21;100.00;93504.00;2582866;22;20420;-83
2023/09/14 04:58:04;;;;;;;10.02;5.40;;;;;;;12.17;100.00;93506.75;2595624;22;20148;-85